Time;durP1;ratioP1;P1;durP2;ratioP2;P2;SDS_P1;SDS_P2;PMS_P1;PMS_P2;Temp;Humidity;BMP_temperature;BMP_pressure;BME280_temperature;BME280_humidity;BME280_pressure;Samples;Min_cycle;Max_cycle;Signal;HPM_P1;HPM_P2
2022/07/23 00:03:43;;;;;;;0.65;0.50;;;27.40;47.20;;;;;;10404630;28;20150;-40
2022/07/23 00:08:47;;;;;;;1.15;0.55;;;27.30;47.10;;;;;;10413793;28;20124;-39
2022/07/23 00:13:49;;;;;;;0.65;0.43;;;27.30;47.10;;;;;;10394023;28;20132;-52
2022/07/23 00:18:50;;;;;;;1.35;0.50;;;27.20;47.10;;;;;;10410618;28;20042;-48
2022/07/23 00:23:54;;;;;;;0.40;0.32;;;27.30;47.20;;;;;;10405449;28;20116;-46
2022/07/23 00:28:55;;;;;;;0.50;0.50;;;27.20;47.10;;;;;;10397963;28;20084;-43
2022/07/23 00:33:57;;;;;;;0.63;0.60;;;27.20;47.10;;;;;;10405346;28;20104;-44
2022/07/23 00:39:00;;;;;;;1.23;0.60;;;27.10;47.10;;;;;;10411545;28;20080;-49
2022/07/23 00:44:22;;;;;;;1.85;0.55;;;27.10;47.10;;;;;;10396382;28;20540;-47
2022/07/23 00:49:26;;;;;;;0.70;0.60;;;27.10;47.30;;;;;;10402716;28;20502;-48
2022/07/23 00:54:29;;;;;;;2.70;0.60;;;27.00;47.20;;;;;;10410125;28;20173;-42
2022/07/23 00:59:31;;;;;;;0.82;0.50;;;27.00;47.20;;;;;;10398615;28;20085;-44
2022/07/23 01:04:33;;;;;;;0.70;0.50;;;27.00;47.30;;;;;;10408896;28;20128;-50
2022/07/23 01:09:38;;;;;;;0.60;0.47;;;27.00;47.20;;;;;;10397321;28;20033;-45
2022/07/23 01:14:40;;;;;;;0.55;0.40;;;27.00;47.20;;;;;;10405241;28;20045;-43
2022/07/23 01:19:42;;;;;;;1.10;0.50;;;27.00;47.40;;;;;;10411195;28;20077;-44
2022/07/23 01:24:45;;;;;;;0.70;0.60;;;26.90;47.30;;;;;;10395036;28;20136;-49
2022/07/23 01:29:47;;;;;;;0.73;0.50;;;26.90;47.30;;;;;;10397502;28;20124;-43
2022/07/23 01:34:49;;;;;;;3.90;0.50;;;26.90;47.30;;;;;;10406513;28;20542;-40
2022/07/23 01:39:52;;;;;;;0.80;0.50;;;26.80;47.20;;;;;;10406406;28;20064;-42
2022/07/23 01:44:54;;;;;;;2.00;0.50;;;26.80;47.20;;;;;;10407839;28;20042;-42
2022/07/23 01:49:56;;;;;;;0.60;0.40;;;26.80;47.30;;;;;;10398103;28;20509;-44
2022/07/23 01:54:59;;;;;;;0.52;0.30;;;26.80;47.30;;;;;;10405593;28;20136;-43
2022/07/23 02:00:01;;;;;;;1.23;0.40;;;26.70;47.10;;;;;;10405916;28;20140;-46
2022/07/23 02:05:03;;;;;;;0.50;0.50;;;26.70;47.20;;;;;;10384584;28;20033;-45
2022/07/23 02:10:07;;;;;;;0.50;0.30;;;26.70;47.30;;;;;;10405017;28;20065;-45
2022/07/23 02:15:10;;;;;;;0.93;0.30;;;26.60;47.20;;;;;;10398197;28;20516;-43
2022/07/23 02:20:12;;;;;;;0.60;0.40;;;26.60;47.20;;;;;;10408574;28;20072;-42
2022/07/23 02:25:15;;;;;;;0.75;0.40;;;26.60;47.10;;;;;;10416341;28;20120;-43
2022/07/23 02:30:17;;;;;;;0.40;0.40;;;26.60;47.20;;;;;;10406495;28;20125;-42
2022/07/23 02:35:19;;;;;;;0.68;0.47;;;26.50;47.20;;;;;;10402570;28;20041;-41
2022/07/23 02:40:22;;;;;;;0.73;0.50;;;26.50;47.10;;;;;;10387350;28;20144;-47
2022/07/23 02:45:24;;;;;;;0.68;0.50;;;26.50;47.20;;;;;;10403482;28;20076;-44
2022/07/23 02:50:26;;;;;;;1.30;0.60;;;26.40;47.10;;;;;;10394695;28;20057;-41
2022/07/23 02:55:30;;;;;;;0.68;0.40;;;26.40;47.20;;;;;;10408231;28;20069;-44
2022/07/23 03:00:32;;;;;;;0.52;0.40;;;26.40;47.20;;;;;;10401648;28;20119;-44
2022/07/23 03:05:34;;;;;;;0.80;0.40;;;26.40;47.30;;;;;;10408101;28;20513;-42
2022/07/23 03:10:38;;;;;;;1.38;0.45;;;26.40;47.20;;;;;;10406749;28;20073;-43
2022/07/23 03:15:40;;;;;;;0.77;0.30;;;26.40;47.30;;;;;;10409312;28;20076;-45
2022/07/23 03:20:42;;;;;;;0.38;0.38;;;26.40;47.20;;;;;;10404923;28;20590;-42
2022/07/23 03:25:46;;;;;;;0.20;0.20;;;26.30;47.80;;;;;;10403141;28;20073;-44
2022/07/23 03:30:48;;;;;;;0.40;0.40;;;26.30;47.30;;;;;;10399442;28;20041;-42
2022/07/23 03:35:50;;;;;;;1.95;0.85;;;26.30;47.30;;;;;;10401805;28;21160;-40
2022/07/23 03:40:54;;;;;;;0.40;0.40;;;26.30;47.40;;;;;;10403092;28;20085;-43
2022/07/23 03:45:56;;;;;;;0.63;0.40;;;26.20;47.30;;;;;;10408817;28;20055;-41
2022/07/23 03:50:58;;;;;;;0.82;0.50;;;26.20;47.20;;;;;;10399100;28;20083;-44
2022/07/23 03:56:01;;;;;;;0.55;0.45;;;26.20;47.20;;;;;;10402723;28;20436;-45
2022/07/23 04:01:03;;;;;;;0.32;0.32;;;26.10;47.20;;;;;;10422016;28;20130;-42
2022/07/23 04:06:05;;;;;;;0.50;0.40;;;26.10;47.20;;;;;;10419162;28;20110;-45
2022/07/23 04:11:09;;;;;;;0.50;0.50;;;26.10;47.20;;;;;;10404280;28;20482;-44
2022/07/23 04:16:11;;;;;;;0.98;0.40;;;26.10;47.20;;;;;;10421214;28;20042;-43
2022/07/23 04:21:12;;;;;;;0.30;0.30;;;26.00;47.30;;;;;;10401874;28;20134;-41
2022/07/23 04:26:16;;;;;;;0.60;0.47;;;26.00;47.10;;;;;;10408189;28;20080;-44
2022/07/23 04:31:18;;;;;;;0.38;0.30;;;26.00;47.20;;;;;;10406909;28;20045;-40
2022/07/23 04:36:20;;;;;;;0.68;0.40;;;26.00;47.20;;;;;;10408819;28;20061;-41
2022/07/23 04:41:23;;;;;;;1.42;0.50;;;26.00;47.80;;;;;;10405300;28;20477;-40
2022/07/23 04:46:25;;;;;;;1.48;0.40;;;26.00;47.30;;;;;;10409583;28;20130;-39
2022/07/23 04:51:27;;;;;;;0.80;0.50;;;25.90;47.10;;;;;;10409553;28;20041;-41
2022/07/23 04:56:30;;;;;;;0.50;0.50;;;25.90;47.00;;;;;;10407715;28;20084;-42
2022/07/23 05:01:32;;;;;;;0.68;0.30;;;26.00;47.20;;;;;;10406686;28;20055;-41
2022/07/23 05:06:33;;;;;;;0.82;0.60;;;25.90;47.10;;;;;;10405455;28;20088;-41
2022/07/23 05:11:37;;;;;;;0.60;0.50;;;25.90;47.10;;;;;;10420434;28;20064;-41
2022/07/23 05:16:38;;;;;;;1.42;0.70;;;26.00;47.10;;;;;;10406842;28;20099;-43
2022/07/23 05:21:40;;;;;;;0.35;0.35;;;26.00;47.00;;;;;;10407962;28;20045;-41
2022/07/23 05:26:44;;;;;;;0.50;0.50;;;26.00;47.00;;;;;;10400971;28;20532;-43
2022/07/23 05:31:46;;;;;;;0.40;0.30;;;26.00;46.90;;;;;;10404037;28;20501;-46
2022/07/23 05:36:48;;;;;;;0.60;0.40;;;25.90;46.80;;;;;;10398773;28;20046;-45
2022/07/23 05:41:51;;;;;;;0.77;0.60;;;25.90;46.80;;;;;;10406519;28;20440;-44
2022/07/23 05:46:53;;;;;;;1.42;0.90;;;25.80;46.80;;;;;;10410433;28;20053;-42
2022/07/23 05:51:55;;;;;;;2.83;1.50;;;25.80;46.80;;;;;;10406095;28;20120;-48
2022/07/23 05:56:58;;;;;;;2.25;1.33;;;25.90;46.70;;;;;;10409710;28;20096;-42
2022/07/23 06:02:00;;;;;;;2.80;1.20;;;25.90;46.60;;;;;;10401456;28;20083;-46
2022/07/23 06:07:02;;;;;;;1.83;1.23;;;26.00;46.60;;;;;;10390088;28;20103;-44
2022/07/23 06:12:06;;;;;;;2.78;1.92;;;26.00;46.50;;;;;;10407763;28;20049;-47
2022/07/23 06:17:09;;;;;;;2.00;1.38;;;26.00;46.40;;;;;;10397313;28;20355;-43
2022/07/23 06:22:10;;;;;;;2.10;1.52;;;26.10;46.50;;;;;;10394634;28;20498;-46
2022/07/23 06:27:14;;;;;;;3.45;2.05;;;26.10;46.40;;;;;;10409323;28;20064;-41
2022/07/23 06:32:15;;;;;;;4.28;2.75;;;26.10;46.30;;;;;;10400628;28;20041;-44
2022/07/23 06:37:17;;;;;;;4.40;3.03;;;26.10;46.30;;;;;;10384801;28;20129;-43
2022/07/23 06:42:20;;;;;;;5.10;3.15;;;26.20;46.20;;;;;;10409092;28;20128;-46
2022/07/23 06:47:22;;;;;;;5.00;3.15;;;26.10;46.20;;;;;;10405783;28;20038;-45
2022/07/23 06:52:25;;;;;;;4.32;2.92;;;26.10;46.20;;;;;;10405165;28;20127;-41
2022/07/23 06:57:29;;;;;;;3.95;2.85;;;26.10;46.30;;;;;;10405922;28;20051;-42
2022/07/23 07:02:31;;;;;;;6.70;2.78;;;26.00;46.40;;;;;;10411809;28;20120;-41
2022/07/23 07:07:33;;;;;;;6.50;3.45;;;26.00;46.30;;;;;;10394888;28;20046;-44
2022/07/23 07:12:36;;;;;;;7.10;3.35;;;26.10;46.20;;;;;;10403492;28;20128;-42
2022/07/23 07:17:39;;;;;;;11.02;3.38;;;26.30;46.10;;;;;;10391493;28;20875;-51
2022/07/23 07:22:41;;;;;;;10.88;3.75;;;26.30;46.00;;;;;;10397998;28;20050;-47
2022/07/23 07:27:44;;;;;;;10.00;4.32;;;26.30;46.00;;;;;;10406031;28;20072;-42
2022/07/23 07:32:46;;;;;;;11.25;4.03;;;26.40;46.00;;;;;;10409838;28;20069;-42
2022/07/23 07:37:48;;;;;;;9.57;4.50;;;26.40;46.50;;;;;;10394422;28;20141;-41
2022/07/23 07:42:53;;;;;;;13.23;4.00;;;26.40;45.90;;;;;;10403347;28;20061;-44
2022/07/23 07:47:54;;;;;;;11.20;4.78;;;26.50;45.90;;;;;;10407984;28;20132;-42
2022/07/23 07:52:56;;;;;;;11.20;4.20;;;26.40;45.90;;;;;;10401552;28;20068;-41
2022/07/23 07:58:00;;;;;;;11.98;4.65;;;26.40;45.90;;;;;;10405419;28;20129;-41
2022/07/23 08:03:02;;;;;;;11.10;5.00;;;26.50;45.90;;;;;;10412276;28;20072;-44
2022/07/23 08:08:04;;;;;;;15.10;6.05;;;26.50;45.80;;;;;;10412617;28;20124;-47
2022/07/23 08:13:07;;;;;;;18.00;7.38;;;26.50;45.80;;;;;;10399706;28;20430;-40
2022/07/23 08:18:10;;;;;;;11.30;6.45;;;26.50;46.00;;;;;;10392867;28;20041;-40
2022/07/23 08:23:11;;;;;;;14.13;6.20;;;26.40;46.30;;;;;;10403150;28;20304;-45
2022/07/23 08:28:16;;;;;;;16.65;6.55;;;26.40;46.10;;;;;;10402655;28;20044;-46
2022/07/23 08:33:19;;;;;;;14.02;6.82;;;26.50;46.00;;;;;;10409423;28;20045;-42
2022/07/23 08:38:22;;;;;;;14.13;6.35;;;26.60;46.00;;;;;;10406115;28;20136;-43
2022/07/23 08:43:27;;;;;;;13.02;6.30;;;26.60;46.00;;;;;;10392168;28;20049;-40
2022/07/23 08:48:30;;;;;;;12.60;5.63;;;26.70;45.90;;;;;;10390701;28;20072;-46
2022/07/23 08:53:35;;;;;;;13.73;5.53;;;26.70;45.90;;;;;;10406227;28;20223;-41
2022/07/23 08:58:38;;;;;;;11.98;5.55;;;26.60;46.10;;;;;;10401598;28;20132;-43
2022/07/23 09:03:40;;;;;;;9.88;5.13;;;26.60;46.00;;;;;;10407083;28;20080;-43
2022/07/23 09:08:44;;;;;;;9.27;4.50;;;26.70;46.00;;;;;;10409527;28;20513;-43
2022/07/23 09:13:49;;;;;;;6.85;2.90;;;26.80;46.20;;;;;;10397289;28;20046;-43
2022/07/23 09:18:53;;;;;;;9.02;2.20;;;26.80;46.40;;;;;;10402471;28;20133;-45
2022/07/23 09:23:58;;;;;;;5.63;2.22;;;26.80;46.90;;;;;;10409462;28;20045;-45
2022/07/23 09:29:07;;;;;;;5.22;1.52;;;26.80;47.20;;;;;;10405102;28;20061;-46
2022/07/23 09:34:11;;;;;;;6.57;1.85;;;26.80;47.00;;;;;;10409393;28;20539;-42
2022/07/23 09:39:14;;;;;;;4.18;1.17;;;26.80;47.20;;;;;;10401370;28;20133;-41
2022/07/23 09:44:19;;;;;;;5.97;1.40;;;26.80;47.50;;;;;;10408432;28;20049;-44
2022/07/23 09:49:23;;;;;;;4.20;0.98;;;26.90;47.30;;;;;;10396733;28;20041;-43
2022/07/23 09:54:33;;;;;;;7.72;1.00;;;26.90;47.10;;;;;;10405783;28;20394;-42
2022/07/23 09:59:38;;;;;;;5.78;1.48;;;27.00;47.30;;;;;;10406858;28;20088;-43
2022/07/23 10:04:41;;;;;;;4.00;1.15;;;27.10;47.00;;;;;;10409875;28;20049;-44
2022/07/23 10:09:44;;;;;;;8.50;1.50;;;27.20;46.80;;;;;;10404156;28;20385;-46
2022/07/23 10:14:47;;;;;;;5.88;1.10;;;27.30;46.80;;;;;;10404104;28;20065;-43
2022/07/23 10:19:50;;;;;;;4.30;0.90;;;27.30;46.80;;;;;;10398622;28;20053;-43
2022/07/23 10:24:59;;;;;;;3.78;1.00;;;27.40;46.60;;;;;;10404525;28;20121;-43
2022/07/23 10:30:06;;;;;;;3.72;1.00;;;27.40;47.10;;;;;;10404074;28;20120;-46
2022/07/23 10:35:16;;;;;;;8.90;0.88;;;27.50;46.50;;;;;;10404588;28;20557;-48
2022/07/23 10:40:21;;;;;;;6.00;0.73;;;27.50;46.60;;;;;;10405208;28;20512;-44
2022/07/23 10:45:27;;;;;;;6.93;1.25;;;27.50;46.60;;;;;;10399497;28;20068;-44
2022/07/23 10:50:34;;;;;;;3.38;1.00;;;27.60;46.70;;;;;;10396808;28;20489;-43
2022/07/23 10:56:00;;;;;;;3.75;0.80;;;27.50;46.60;;;;;;10405406;28;20045;-48
2022/07/23 11:01:03;;;;;;;8.63;0.98;;;27.60;46.90;;;;;;10400976;28;20141;-44
2022/07/23 11:06:06;;;;;;;5.35;1.30;;;27.60;46.80;;;;;;10407881;28;20120;-48
2022/07/23 11:11:12;;;;;;;6.45;1.20;;;27.80;46.90;;;;;;10399585;28;20041;-42
2022/07/23 11:16:18;;;;;;;4.55;1.13;;;27.80;46.90;;;;;;10406222;28;20038;-48
2022/07/23 11:21:45;;;;;;;7.13;1.10;;;27.90;46.80;;;;;;10404700;28;20076;-44
2022/07/23 11:27:04;;;;;;;7.43;1.33;;;28.00;46.80;;;;;;10405244;28;20124;-41
2022/07/23 11:32:18;;;;;;;3.30;0.70;;;28.00;46.70;;;;;;10420200;28;20042;-43
2022/07/23 11:37:34;;;;;;;6.85;1.30;;;28.10;46.80;;;;;;10411522;28;20132;-42
2022/07/23 11:42:37;;;;;;;7.38;1.60;;;28.10;46.80;;;;;;10409465;28;20066;-43
2022/07/23 11:47:40;;;;;;;2.88;1.10;;;28.10;46.70;;;;;;10400665;28;20068;-42
2022/07/23 11:52:42;;;;;;;3.47;0.73;;;28.20;46.70;;;;;;10417945;28;20072;-45
2022/07/23 11:57:44;;;;;;;1.83;0.73;;;28.20;46.70;;;;;;10399018;28;20080;-44
2022/07/23 12:02:50;;;;;;;3.45;0.77;;;28.20;46.80;;;;;;10412018;28;20472;-43
2022/07/23 12:07:54;;;;;;;9.13;1.05;;;28.20;46.80;;;;;;10409657;28;20129;-44
2022/07/23 12:12:58;;;;;;;5.50;1.02;;;28.30;47.30;;;;;;10403200;28;20121;-42
2022/07/23 12:18:02;;;;;;;4.53;1.35;;;28.40;46.90;;;;;;10397801;28;20034;-45
2022/07/23 12:23:07;;;;;;;2.70;0.70;;;28.40;46.70;;;;;;10407338;28;20061;-44
2022/07/23 12:28:11;;;;;;;2.13;0.60;;;28.40;46.70;;;;;;10398264;28;20054;-46
2022/07/23 12:33:21;;;;;;;3.53;0.88;;;28.50;46.60;;;;;;10388752;28;20061;-41
2022/07/23 12:38:25;;;;;;;4.43;1.23;;;28.60;46.60;;;;;;10401339;28;20041;-42
2022/07/23 12:43:28;;;;;;;4.85;1.15;;;28.60;46.70;;;;;;10394071;28;20093;-45
2022/07/23 12:48:33;;;;;;;2.78;1.13;;;28.60;46.60;;;;;;10388095;28;20042;-44
2022/07/23 12:53:42;;;;;;;1.45;0.80;;;28.60;46.50;;;;;;10401953;28;20053;-45
2022/07/23 12:58:47;;;;;;;1.13;0.60;;;28.70;46.50;;;;;;10391121;28;20037;-45
2022/07/23 13:03:59;;;;;;;3.30;1.25;;;28.80;46.50;;;;;;10408891;28;20133;-44
2022/07/23 13:09:01;;;;;;;3.75;1.10;;;28.80;46.70;;;;;;10402090;28;20053;-43
2022/07/23 13:14:04;;;;;;;1.00;0.65;;;28.90;46.60;;;;;;10400858;28;20130;-40
2022/07/23 13:19:07;;;;;;;0.75;0.55;;;29.00;46.30;;;;;;10401983;28;20115;-43
2022/07/23 13:24:10;;;;;;;1.83;0.88;;;29.00;46.30;;;;;;10407813;28;20077;-43
2022/07/23 13:29:12;;;;;;;2.67;0.85;;;28.90;46.30;;;;;;10407066;28;20065;-45
2022/07/23 13:34:15;;;;;;;4.10;1.48;;;28.90;46.40;;;;;;10404699;28;20127;-42
2022/07/23 13:39:17;;;;;;;4.75;1.20;;;28.90;46.50;;;;;;10411834;28;20052;-42
2022/07/23 13:44:19;;;;;;;4.65;0.65;;;29.10;46.60;;;;;;10406027;28;20126;-41
2022/07/23 13:49:22;;;;;;;4.30;0.70;;;29.20;46.80;;;;;;10406061;28;20057;-46
2022/07/23 13:54:24;;;;;;;2.58;0.70;;;29.30;46.50;;;;;;10394019;28;20116;-45
2022/07/23 13:59:26;;;;;;;1.38;0.75;;;29.20;46.50;;;;;;10403137;28;20136;-42
2022/07/23 14:04:29;;;;;;;1.65;0.73;;;29.20;46.90;;;;;;10407056;28;20478;-42
2022/07/23 14:09:33;;;;;;;1.90;0.95;;;29.40;47.00;;;;;;10404689;28;20049;-43
2022/07/23 14:14:35;;;;;;;1.42;0.77;;;29.40;46.70;;;;;;10401895;28;20405;-41
2022/07/23 14:19:38;;;;;;;4.57;0.68;;;29.50;46.70;;;;;;10405144;28;20537;-40
2022/07/23 14:24:41;;;;;;;2.83;0.95;;;29.40;46.40;;;;;;10410581;28;20133;-40
2022/07/23 14:29:43;;;;;;;2.58;1.10;;;29.60;46.90;;;;;;10406783;28;20049;-41
2022/07/23 14:34:47;;;;;;;0.82;0.52;;;29.60;46.40;;;;;;10403885;28;20133;-40
2022/07/23 14:39:49;;;;;;;4.18;1.02;;;29.50;46.50;;;;;;10401236;28;20564;-44
2022/07/23 14:44:50;;;;;;;8.13;1.75;;;29.50;46.70;;;;;;10398362;28;20077;-41
2022/07/23 14:49:53;;;;;;;3.50;1.75;;;29.50;46.70;;;;;;10404901;28;20160;-40
2022/07/23 14:54:55;;;;;;;1.60;0.90;;;29.70;46.90;;;;;;10403075;28;20046;-40
2022/07/23 14:59:58;;;;;;;2.70;1.10;;;29.80;47.20;;;;;;10395512;28;20169;-41
2022/07/23 15:05:02;;;;;;;2.15;0.70;;;29.90;47.90;;;;;;10406919;28;20068;-48
2022/07/23 15:10:04;;;;;;;0.95;0.70;;;29.90;48.90;;;;;;10392255;28;20041;-43
2022/07/23 15:15:07;;;;;;;2.75;1.40;;;30.00;48.10;;;;;;10402827;28;20041;-41
2022/07/23 15:20:11;;;;;;;2.53;0.85;;;30.10;48.60;;;;;;10400088;28;20529;-47
2022/07/23 15:25:13;;;;;;;0.60;0.60;;;30.20;49.30;;;;;;10414592;28;20100;-43
2022/07/23 15:30:15;;;;;;;1.45;0.68;;;30.40;50.20;;;;;;10393733;28;20081;-48
2022/07/23 15:35:18;;;;;;;1.48;0.68;;;30.30;48.40;;;;;;10406986;28;20124;-41
2022/07/23 15:40:20;;;;;;;1.27;0.70;;;30.40;49.60;;;;;;10404245;28;20061;-40
2022/07/23 15:45:22;;;;;;;1.05;0.88;;;30.40;50.70;;;;;;10402570;28;20454;-39
2022/07/23 15:50:25;;;;;;;0.80;0.80;;;30.40;49.80;;;;;;10396613;28;20068;-42
2022/07/23 15:55:27;;;;;;;0.85;0.68;;;30.60;50.70;;;;;;10388141;28;20053;-41
2022/07/23 16:00:29;;;;;;;0.88;0.70;;;30.70;51.40;;;;;;10412195;28;20099;-42
2022/07/23 16:05:32;;;;;;;2.05;0.57;;;30.60;50.30;;;;;;10411384;28;20069;-44
2022/07/23 16:10:35;;;;;;;1.02;0.60;;;30.80;50.90;;;;;;10411405;28;20048;-45
2022/07/23 16:15:38;;;;;;;0.90;0.60;;;30.70;50.40;;;;;;10411247;28;20133;-42
2022/07/23 16:20:41;;;;;;;1.20;0.90;;;30.80;52.50;;;;;;10411010;28;20111;-41
2022/07/23 16:25:43;;;;;;;1.35;1.10;;;30.90;50.40;;;;;;10399152;28;20046;-40
2022/07/23 16:30:45;;;;;;;1.48;1.00;;;30.90;51.70;;;;;;10398422;28;20076;-42
2022/07/23 16:35:48;;;;;;;4.32;2.63;;;31.00;51.70;;;;;;10381564;28;20046;-41
2022/07/23 16:40:50;;;;;;;3.15;1.95;;;31.10;51.40;;;;;;10401350;28;20446;-44
2022/07/23 16:45:52;;;;;;;5.75;3.58;;;31.00;51.40;;;;;;10423683;28;20037;-44
2022/07/23 16:50:56;;;;;;;4.05;1.98;;;31.00;51.10;;;;;;10395741;28;20515;-42
2022/07/23 16:55:58;;;;;;;3.50;2.30;;;31.20;52.50;;;;;;10397112;28;20068;-42
2022/07/23 17:00:59;;;;;;;2.92;2.20;;;31.20;51.40;;;;;;10402801;28;20104;-41
2022/07/23 17:06:02;;;;;;;4.07;2.03;;;31.20;51.70;;;;;;10398157;28;20037;-40
2022/07/23 17:11:04;;;;;;;3.35;2.20;;;31.30;51.80;;;;;;10409428;28;20045;-40
2022/07/23 17:16:06;;;;;;;6.70;3.45;;;31.30;51.90;;;;;;10398117;28;20041;-42
2022/07/23 17:21:10;;;;;;;3.10;1.83;;;31.40;50.90;;;;;;10408985;28;20091;-41
2022/07/23 17:26:12;;;;;;;5.22;3.88;;;31.40;51.30;;;;;;10410763;28;20045;-46
2022/07/23 17:31:14;;;;;;;3.13;2.30;;;31.50;51.30;;;;;;10408408;28;20509;-46
2022/07/23 17:36:17;;;;;;;2.75;2.05;;;31.50;51.70;;;;;;10406853;28;20045;-42
2022/07/23 17:41:19;;;;;;;3.72;1.95;;;31.60;52.10;;;;;;10401819;28;20057;-41
2022/07/23 17:46:21;;;;;;;3.10;2.10;;;31.60;52.80;;;;;;10409286;28;20068;-40
2022/07/23 17:51:24;;;;;;;3.05;2.22;;;31.70;52.60;;;;;;10405413;28;20427;-40
2022/07/23 17:56:26;;;;;;;3.33;2.50;;;31.70;53.10;;;;;;10398030;28;20493;-41
2022/07/23 18:01:29;;;;;;;10.25;4.50;;;31.60;52.30;;;;;;10404868;28;20061;-39
2022/07/23 18:06:32;;;;;;;2.50;2.10;;;31.70;52.30;;;;;;10415387;28;20045;-40
2022/07/23 18:11:36;;;;;;;2.33;2.10;;;31.70;53.40;;;;;;10400099;28;20065;-45
2022/07/23 18:16:38;;;;;;;2.25;1.85;;;31.80;52.60;;;;;;10403255;28;20034;-44
2022/07/23 18:21:41;;;;;;;3.05;2.63;;;31.80;52.50;;;;;;10405544;28;20091;-41
2022/07/23 18:26:43;;;;;;;1.92;1.63;;;31.70;52.60;;;;;;10393901;28;20068;-41
2022/07/23 18:31:45;;;;;;;2.58;1.90;;;31.80;53.70;;;;;;10385810;28;20080;-41
2022/07/23 18:36:48;;;;;;;2.05;1.67;;;31.90;52.30;;;;;;10382722;28;20121;-40
2022/07/23 18:41:50;;;;;;;2.08;1.88;;;31.90;53.00;;;;;;10410061;28;20085;-40
2022/07/23 18:46:52;;;;;;;2.08;1.70;;;31.90;53.50;;;;;;10427011;28;20123;-42
2022/07/23 18:51:55;;;;;;;2.72;1.80;;;31.90;53.10;;;;;;10419163;28;20128;-40
2022/07/23 18:56:57;;;;;;;2.60;1.88;;;31.90;53.00;;;;;;10407336;28;20469;-41
2022/07/23 19:01:59;;;;;;;2.35;1.70;;;31.80;52.80;;;;;;10411609;28;20140;-43
2022/07/23 19:07:02;;;;;;;2.88;1.55;;;31.90;52.90;;;;;;10390241;28;20554;-40
2022/07/23 19:12:05;;;;;;;2.22;2.03;;;31.80;52.80;;;;;;10404039;28;20128;-44
2022/07/23 19:17:07;;;;;;;2.38;1.75;;;31.80;52.20;;;;;;10386078;28;20076;-43
2022/07/23 19:22:10;;;;;;;1.60;1.50;;;31.80;52.10;;;;;;10386109;28;20482;-45
2022/07/23 19:27:12;;;;;;;2.58;1.70;;;31.70;51.90;;;;;;10389319;28;20046;-42
2022/07/23 19:32:15;;;;;;;1.73;1.52;;;31.70;51.80;;;;;;10401028;28;20062;-42
2022/07/23 19:37:18;;;;;;;2.13;1.70;;;31.70;51.90;;;;;;10382143;28;20041;-43
2022/07/23 19:42:20;;;;;;;1.92;1.50;;;31.70;51.50;;;;;;10410752;28;20140;-41
2022/07/23 19:47:22;;;;;;;2.60;1.60;;;31.60;51.00;;;;;;10397902;28;20065;-42
2022/07/23 19:52:25;;;;;;;1.92;1.73;;;31.50;49.60;;;;;;10407031;28;20041;-40
2022/07/23 19:57:27;;;;;;;2.08;1.80;;;31.30;49.20;;;;;;10411616;28;20478;-42
2022/07/23 20:02:29;;;;;;;3.53;2.10;;;31.30;49.00;;;;;;10405448;28;20103;-41
2022/07/23 20:07:32;;;;;;;4.38;2.00;;;31.20;48.70;;;;;;10409901;28;20077;-41
2022/07/23 20:12:34;;;;;;;6.28;2.40;;;31.10;48.50;;;;;;10398239;28;20125;-42
2022/07/23 20:17:36;;;;;;;5.35;2.53;;;31.10;48.60;;;;;;10398639;28;20478;-41
2022/07/23 20:22:39;;;;;;;3.83;2.40;;;31.00;48.40;;;;;;10398661;28;20052;-42
2022/07/23 20:27:41;;;;;;;3.90;2.40;;;31.00;48.50;;;;;;10408442;28;20078;-41
2022/07/23 20:32:43;;;;;;;7.95;3.08;;;30.90;48.30;;;;;;10396776;28;20104;-39
2022/07/23 20:37:57;;;;;;;7.88;3.10;;;30.90;48.20;;;;;;10405111;28;20115;-42
2022/07/23 20:42:59;;;;;;;5.75;2.88;;;30.90;48.40;;;;;;10403310;28;20263;-45
2022/07/23 20:48:01;;;;;;;6.53;2.80;;;30.90;48.80;;;;;;10400818;28;20103;-46
2022/07/23 20:53:05;;;;;;;10.23;3.10;;;30.90;48.60;;;;;;10396566;28;20042;-42
2022/07/23 20:58:07;;;;;;;13.00;3.55;;;30.90;48.70;;;;;;10409656;28;20060;-46
2022/07/23 21:03:10;;;;;;;15.90;3.80;;;31.00;48.80;;;;;;10401064;28;20049;-45
2022/07/23 21:08:13;;;;;;;16.92;3.92;;;31.00;48.90;;;;;;10412957;28;20045;-47
2022/07/23 21:13:16;;;;;;;9.50;3.35;;;30.90;48.80;;;;;;10422124;28;20042;-45
2022/07/23 21:18:17;;;;;;;13.40;3.78;;;30.90;48.90;;;;;;10413335;28;20041;-44
2022/07/23 21:23:21;;;;;;;6.60;3.05;;;30.90;48.90;;;;;;10418044;28;20125;-43
2022/07/23 21:28:22;;;;;;;7.53;3.05;;;30.90;49.00;;;;;;10412492;28;20037;-44
2022/07/23 21:33:24;;;;;;;5.00;3.13;;;30.90;49.00;;;;;;10412645;28;20130;-42
2022/07/23 21:38:28;;;;;;;5.97;3.13;;;30.80;48.90;;;;;;10411220;28;20478;-44
2022/07/23 21:43:29;;;;;;;6.40;2.53;;;30.80;49.10;;;;;;10405265;28;20486;-45
2022/07/23 21:48:31;;;;;;;8.98;3.28;;;30.80;49.10;;;;;;10397693;28;20155;-42
2022/07/23 21:53:34;;;;;;;6.68;2.58;;;30.80;49.10;;;;;;10410909;28;20095;-43
2022/07/23 21:58:36;;;;;;;5.25;2.60;;;30.80;48.90;;;;;;10411434;28;20530;-44
2022/07/23 22:03:38;;;;;;;4.43;2.40;;;30.80;48.90;;;;;;10423885;28;20095;-45
2022/07/23 22:08:42;;;;;;;3.72;2.70;;;30.70;48.90;;;;;;10396974;28;20073;-41
2022/07/23 22:13:43;;;;;;;4.82;2.70;;;30.70;48.80;;;;;;10393802;28;20068;-47
2022/07/23 22:18:46;;;;;;;3.75;2.45;;;30.60;48.70;;;;;;10409244;28;20134;-42
2022/07/23 22:23:49;;;;;;;3.65;2.80;;;30.60;48.70;;;;;;10399158;28;20141;-45
2022/07/23 22:28:51;;;;;;;3.05;2.45;;;30.60;48.70;;;;;;10393076;28;20136;-41
2022/07/23 22:33:53;;;;;;;4.82;2.97;;;30.50;48.70;;;;;;10388951;28;20164;-45
2022/07/23 22:38:56;;;;;;;2.75;2.55;;;30.50;48.80;;;;;;10396650;28;20038;-41
2022/07/23 22:43:58;;;;;;;5.93;4.32;;;30.40;48.70;;;;;;10411009;28;20088;-44
2022/07/23 22:49:00;;;;;;;4.57;2.45;;;30.40;48.60;;;;;;10397531;28;20124;-42
2022/07/23 22:54:03;;;;;;;3.05;2.33;;;30.40;48.50;;;;;;10405140;28;20132;-42
2022/07/23 22:59:05;;;;;;;2.92;2.33;;;30.30;48.70;;;;;;10402773;28;20069;-40
2022/07/23 23:04:07;;;;;;;3.35;2.50;;;30.20;48.70;;;;;;10407147;28;20512;-42
2022/07/23 23:09:10;;;;;;;3.05;2.30;;;30.20;48.80;;;;;;10420214;28;20132;-46
2022/07/23 23:14:12;;;;;;;2.63;2.22;;;30.20;48.80;;;;;;10410901;28;20478;-41
2022/07/23 23:19:14;;;;;;;4.28;2.63;;;30.20;48.70;;;;;;10397251;28;20069;-44
2022/07/23 23:24:17;;;;;;;3.38;2.55;;;30.10;48.70;;;;;;10410012;28;20080;-42
2022/07/23 23:29:19;;;;;;;3.15;2.60;;;30.10;49.40;;;;;;10396287;28;20482;-47
2022/07/23 23:34:21;;;;;;;2.55;2.35;;;30.00;48.60;;;;;;10396687;28;20052;-42
2022/07/23 23:39:24;;;;;;;2.65;2.30;;;30.00;48.50;;;;;;10409395;28;20125;-45
2022/07/23 23:44:26;;;;;;;2.40;2.20;;;30.00;48.60;;;;;;10392091;28;20112;-46
2022/07/23 23:49:28;;;;;;;2.60;2.33;;;29.90;48.50;;;;;;10407590;28;20042;-42
2022/07/23 23:54:31;;;;;;;3.20;2.30;;;29.90;49.30;;;;;;10405937;28;20041;-40
2022/07/23 23:59:33;;;;;;;3.30;2.40;;;29.80;48.70;;;;;;10408462;28;20065;-40
